sensor_id;sensor_type;location;lat;lon;timestamp;temperature;humidity
81366;DHT22;70822;51.990;22.766;2023-12-07T00:11:29;-0.40;88.70
81366;DHT22;70822;51.990;22.766;2023-12-07T00:26:35;-0.40;88.70
81366;DHT22;70822;51.990;22.766;2023-12-07T00:41:40;-0.30;88.90
81366;DHT22;70822;51.990;22.766;2023-12-07T00:56:48;-0.40;88.80
81366;DHT22;70822;51.990;22.766;2023-12-07T01:11:53;-0.10;88.70
81366;DHT22;70822;51.990;22.766;2023-12-07T01:26:58;-0.40;88.50
81366;DHT22;70822;51.990;22.766;2023-12-07T01:42:05;-0.30;88.50
81366;DHT22;70822;51.990;22.766;2023-12-07T01:57:09;-0.50;88.60
81366;DHT22;70822;51.990;22.766;2023-12-07T02:12:14;-0.40;88.50
81366;DHT22;70822;51.990;22.766;2023-12-07T02:27:34;-0.40;88.60
81366;DHT22;70822;51.990;22.766;2023-12-07T02:42:39;-0.40;88.60
81366;DHT22;70822;51.990;22.766;2023-12-07T02:57:47;-0.60;88.50
81366;DHT22;70822;51.990;22.766;2023-12-07T03:12:52;-0.50;88.40
81366;DHT22;70822;51.990;22.766;2023-12-07T03:27:56;-0.50;88.40
81366;DHT22;70822;51.990;22.766;2023-12-07T03:43:01;-0.40;88.40
81366;DHT22;70822;51.990;22.766;2023-12-07T03:58:09;-0.40;88.50
81366;DHT22;70822;51.990;22.766;2023-12-07T04:13:15;-0.40;88.40
81366;DHT22;70822;51.990;22.766;2023-12-07T04:28:20;-0.50;88.60
81366;DHT22;70822;51.990;22.766;2023-12-07T04:43:25;-0.60;88.60
81366;DHT22;70822;51.990;22.766;2023-12-07T04:58:30;-0.60;88.50
81366;DHT22;70822;51.990;22.766;2023-12-07T05:13:35;-0.60;88.50
81366;DHT22;70822;51.990;22.766;2023-12-07T05:28:41;-0.40;88.30
81366;DHT22;70822;51.990;22.766;2023-12-07T05:43:46;-0.50;88.20
81366;DHT22;70822;51.990;22.766;2023-12-07T05:58:51;-0.30;87.70
81366;DHT22;70822;51.990;22.766;2023-12-07T06:13:56;-0.40;87.30
81366;DHT22;70822;51.990;22.766;2023-12-07T06:29:03;-0.60;87.70
81366;DHT22;70822;51.990;22.766;2023-12-07T06:44:08;-0.40;87.20
81366;DHT22;70822;51.990;22.766;2023-12-07T06:59:13;-0.60;86.50
81366;DHT22;70822;51.990;22.766;2023-12-07T07:14:18;-0.70;86.70
81366;DHT22;70822;51.990;22.766;2023-12-07T07:29:25;-0.70;86.20
81366;DHT22;70822;51.990;22.766;2023-12-07T07:44:31;-0.90;85.70
81366;DHT22;70822;51.990;22.766;2023-12-07T07:59:36;-0.60;85.30
81366;DHT22;70822;51.990;22.766;2023-12-07T08:14:42;-0.80;84.70
81366;DHT22;70822;51.990;22.766;2023-12-07T08:29:48;-0.40;83.60
81366;DHT22;70822;51.990;22.766;2023-12-07T08:44:55;-0.50;83.40
81366;DHT22;70822;51.990;22.766;2023-12-07T09:00:01;-0.50;83.40
81366;DHT22;70822;51.990;22.766;2023-12-07T09:15:08;-0.40;82.90
81366;DHT22;70822;51.990;22.766;2023-12-07T09:30:14;-0.20;82.70
81366;DHT22;70822;51.990;22.766;2023-12-07T09:45:19;-0.20;80.80
81366;DHT22;70822;51.990;22.766;2023-12-07T10:00:25;-0.10;80.80
81366;DHT22;70822;51.990;22.766;2023-12-07T10:15:30;-0.30;80.30
81366;DHT22;70822;51.990;22.766;2023-12-07T10:30:35;-0.30;80.00
81366;DHT22;70822;51.990;22.766;2023-12-07T10:45:41;-0.20;79.20
81366;DHT22;70822;51.990;22.766;2023-12-07T11:00:50;-0.30;79.00
81366;DHT22;70822;51.990;22.766;2023-12-07T11:15:55;0.00;78.40
81366;DHT22;70822;51.990;22.766;2023-12-07T11:31:01;0.20;78.10
81366;DHT22;70822;51.990;22.766;2023-12-07T11:46:05;0.00;77.80
81366;DHT22;70822;51.990;22.766;2023-12-07T12:01:11;0.20;77.70
81366;DHT22;70822;51.990;22.766;2023-12-07T12:16:15;0.60;76.70
81366;DHT22;70822;51.990;22.766;2023-12-07T12:31:21;0.50;76.40
81366;DHT22;70822;51.990;22.766;2023-12-07T12:46:27;0.20;76.80
81366;DHT22;70822;51.990;22.766;2023-12-07T13:01:32;0.00;76.50
81366;DHT22;70822;51.990;22.766;2023-12-07T13:16:37;-0.10;77.10
81366;DHT22;70822;51.990;22.766;2023-12-07T13:31:42;-0.50;77.60
81366;DHT22;70822;51.990;22.766;2023-12-07T13:46:47;-0.50;78.70
81366;DHT22;70822;51.990;22.766;2023-12-07T14:01:53;-0.70;77.90
81366;DHT22;70822;51.990;22.766;2023-12-07T14:17:00;-0.70;78.40
81366;DHT22;70822;51.990;22.766;2023-12-07T14:32:05;-0.90;80.40
81366;DHT22;70822;51.990;22.766;2023-12-07T14:47:11;-0.60;78.60
81366;DHT22;70822;51.990;22.766;2023-12-07T15:02:15;-1.20;79.10
81366;DHT22;70822;51.990;22.766;2023-12-07T15:17:20;-1.10;79.30
81366;DHT22;70822;51.990;22.766;2023-12-07T15:32:25;-1.40;79.50
81366;DHT22;70822;51.990;22.766;2023-12-07T15:47:36;-1.60;79.70
81366;DHT22;70822;51.990;22.766;2023-12-07T16:02:48;-1.60;79.80
81366;DHT22;70822;51.990;22.766;2023-12-07T16:17:53;-1.80;80.10
81366;DHT22;70822;51.990;22.766;2023-12-07T16:32:58;-2.30;80.10
81366;DHT22;70822;51.990;22.766;2023-12-07T16:48:02;-2.40;80.40
81366;DHT22;70822;51.990;22.766;2023-12-07T17:03:07;-2.50;80.50
81366;DHT22;70822;51.990;22.766;2023-12-07T17:18:12;-2.90;80.90
81366;DHT22;70822;51.990;22.766;2023-12-07T17:33:18;-3.00;81.60
81366;DHT22;70822;51.990;22.766;2023-12-07T17:48:23;-2.80;80.60
81366;DHT22;70822;51.990;22.766;2023-12-07T18:03:27;-2.80;80.80
81366;DHT22;70822;51.990;22.766;2023-12-07T18:18:33;-2.90;80.70
81366;DHT22;70822;51.990;22.766;2023-12-07T18:33:38;-3.30;80.70
81366;DHT22;70822;51.990;22.766;2023-12-07T18:48:43;-3.30;81.00
81366;DHT22;70822;51.990;22.766;2023-12-07T19:03:48;-3.60;81.20
81366;DHT22;70822;51.990;22.766;2023-12-07T19:18:52;-3.50;81.20
81366;DHT22;70822;51.990;22.766;2023-12-07T19:33:57;-3.70;81.30
81366;DHT22;70822;51.990;22.766;2023-12-07T19:49:02;-3.50;81.70
81366;DHT22;70822;51.990;22.766;2023-12-07T20:04:07;-3.70;81.20
81366;DHT22;70822;51.990;22.766;2023-12-07T20:19:12;-4.00;81.50
81366;DHT22;70822;51.990;22.766;2023-12-07T20:34:17;-4.00;81.90
81366;DHT22;70822;51.990;22.766;2023-12-07T20:49:22;-4.00;82.10
81366;DHT22;70822;51.990;22.766;2023-12-07T21:04:27;-4.10;82.10
81366;DHT22;70822;51.990;22.766;2023-12-07T21:19:32;-4.20;82.00
81366;DHT22;70822;51.990;22.766;2023-12-07T21:34:43;-4.10;81.90
81366;DHT22;70822;51.990;22.766;2023-12-07T21:49:48;-4.20;82.10
81366;DHT22;70822;51.990;22.766;2023-12-07T22:04:53;-4.30;82.40
81366;DHT22;70822;51.990;22.766;2023-12-07T22:19:58;-4.30;82.60
81366;DHT22;70822;51.990;22.766;2023-12-07T22:35:04;-4.10;82.60
81366;DHT22;70822;51.990;22.766;2023-12-07T22:50:09;-4.20;82.50
81366;DHT22;70822;51.990;22.766;2023-12-07T23:05:15;-4.30;82.70
81366;DHT22;70822;51.990;22.766;2023-12-07T23:20:20;-4.30;82.60
81366;DHT22;70822;51.990;22.766;2023-12-07T23:35:24;-4.40;82.90
81366;DHT22;70822;51.990;22.766;2023-12-07T23:50:29;-4.50;82.80
